Time;durP1;ratioP1;P1;durP2;ratioP2;P2;SDS_P1;SDS_P2;PMS_P1;PMS_P2;Temp;Humidity;BMP_temperature;BMP_pressure;BME280_temperature;BME280_humidity;BME280_pressure;Samples;Min_cycle;Max_cycle;Signal;HPM_P1;HPM_P2
2023/02/27 00:04:57;;;;;;;15.80;5.30;;;;;;;-1.22;91.84;101385.73;220609;1268;138819;-82
2023/02/27 00:09:57;;;;;;;14.60;5.20;;;;;;;-1.29;92.49;101384.73;221131;1268;139197;-82
2023/02/27 00:14:58;;;;;;;10.80;3.10;;;;;;;-1.35;93.37;101385.77;220616;1268;139442;-83
2023/02/27 00:19:58;;;;;;;11.20;3.60;;;;;;;-1.40;93.47;101380.67;220045;1268;139429;-83
2023/02/27 00:24:59;;;;;;;11.30;3.60;;;;;;;-1.46;93.39;101379.42;220629;1268;138832;-82
2023/02/27 00:30:00;;;;;;;11.20;4.10;;;;;;;-1.54;93.88;101376.38;220118;1268;140023;-83
2023/02/27 00:35:00;;;;;;;13.80;4.90;;;;;;;-1.62;94.03;101388.66;220641;1268;138827;-83
2023/02/27 00:40:01;;;;;;;12.80;4.40;;;;;;;-1.69;94.41;101387.76;220194;1268;139378;-82
2023/02/27 00:45:04;;;;;;;12.50;4.40;;;;;;;-1.76;94.31;101392.13;220713;1271;139154;-82
2023/02/27 00:50:04;;;;;;;15.10;5.30;;;;;;;-1.84;94.75;101393.87;220011;1267;139570;-83
2023/02/27 00:55:05;;;;;;;13.80;4.40;;;;;;;-1.92;94.92;101396.73;220684;1269;139511;-81
2023/02/27 01:00:07;;;;;;;14.10;4.20;;;;;;;-1.97;95.29;101398.42;220348;1267;139087;-84
2023/02/27 01:05:08;;;;;;;10.70;3.90;;;;;;;-2.02;95.50;101397.39;220578;1269;138780;-84
2023/02/27 01:10:11;;;;;;;15.00;4.60;;;;;;;-2.08;95.56;101401.54;220728;1269;139536;-90
2023/02/27 01:15:11;;;;;;;11.50;3.70;;;;;;;-2.12;95.85;101406.30;220515;1267;138890;-90
2023/02/27 01:20:12;;;;;;;12.30;3.50;;;;;;;-2.15;96.30;101400.63;220055;1267;139116;-89
2023/02/27 01:25:13;;;;;;;14.60;3.60;;;;;;;-2.20;96.36;101400.84;220472;1269;139244;-91
2023/02/27 01:30:34;;;;;;;17.10;5.30;;;;;;;-2.23;96.83;101404.02;219991;1268;139076;-92
2023/02/27 01:35:35;;;;;;;11.70;4.10;;;;;;;-2.27;96.85;101408.82;220561;1267;139130;-92
2023/02/27 01:40:40;;;;;;;16.40;4.80;;;;;;;-2.32;96.95;101410.70;220130;1268;138916;-93
2023/02/27 01:45:46;;;;;;;14.50;4.80;;;;;;;-2.36;97.24;101404.55;220347;1269;105941;-83
2023/02/27 01:51:00;;;;;;;13.40;4.60;;;;;;;-2.41;97.42;101403.46;218806;1267;138908;-84
2023/02/27 01:56:17;;;;;;;14.40;4.70;;;;;;;-2.44;97.63;101402.48;218735;1271;139816;-84
2023/02/27 02:01:20;;;;;;;14.90;6.20;;;;;;;-2.48;97.82;101406.37;219413;1271;139481;-84
2023/02/27 02:06:20;;;;;;;18.50;5.30;;;;;;;-2.52;98.12;101415.48;218874;1271;140528;-84
2023/02/27 02:11:22;;;;;;;16.50;5.20;;;;;;;-2.58;97.95;101409.20;219277;1269;139243;-85
2023/02/27 02:16:58;;;;;;;14.00;4.20;;;;;;;-2.62;98.18;101414.64;218900;1268;139078;-84
2023/02/27 02:22:36;;;;;;;15.30;4.70;;;;;;;-2.65;98.57;101412.20;219513;1268;98013;-84
2023/02/27 02:28:14;;;;;;;12.80;4.00;;;;;;;-2.69;98.93;101417.36;218688;1272;139315;-85
2023/02/27 02:33:18;;;;;;;7.80;3.60;;;;;;;-2.72;99.12;101421.36;219051;1269;139185;-84
2023/02/27 02:38:27;;;;;;;15.10;4.60;;;;;;;-2.75;99.26;101428.52;218659;1272;139557;-84
2023/02/27 02:43:41;;;;;;;11.90;3.90;;;;;;;-2.79;99.26;101428.23;219127;1271;139480;-84
2023/02/27 02:48:59;;;;;;;12.10;4.20;;;;;;;-2.81;99.86;101435.48;218661;1270;139396;-83
2023/02/27 02:54:15;;;;;;;10.70;3.90;;;;;;;-2.88;99.70;101442.09;219243;1271;138945;-84
2023/02/27 02:59:35;;;;;;;14.10;4.50;;;;;;;-2.91;99.73;101442.66;218670;1268;139703;-84
2023/02/27 03:05:04;;;;;;;17.80;4.00;;;;;;;-2.96;99.67;101452.67;219546;1271;112143;-84
2023/02/27 03:10:20;;;;;;;11.40;4.30;;;;;;;-3.02;99.90;101455.06;218638;1270;138779;-85
2023/02/27 03:15:26;;;;;;;12.10;3.80;;;;;;;-3.05;100.00;101456.67;219155;1270;138982;-84
2023/02/27 03:20:31;;;;;;;10.70;3.60;;;;;;;-3.06;100.00;101461.13;218626;1271;139242;-84
2023/02/27 03:25:34;;;;;;;11.90;3.60;;;;;;;-3.06;100.00;101462.53;219033;1268;139582;-84
2023/02/27 03:30:59;;;;;;;12.50;4.60;;;;;;;-3.05;100.00;101465.08;218721;1269;139279;-84
2023/02/27 03:36:12;;;;;;;14.50;4.90;;;;;;;-3.03;100.00;101470.85;218900;1271;139981;-84
2023/02/27 03:41:41;;;;;;;14.80;5.70;;;;;;;-3.03;100.00;101469.17;219265;1268;140027;-84
2023/02/27 03:46:42;;;;;;;12.00;4.40;;;;;;;-3.04;100.00;101470.20;219360;1267;139286;-84
2023/02/27 03:51:42;;;;;;;14.00;5.10;;;;;;;-3.04;100.00;101475.90;219253;1268;138757;-85
2023/02/27 03:56:48;;;;;;;15.90;4.50;;;;;;;-3.00;100.00;101485.35;218834;1268;140024;-85
2023/02/27 04:01:51;;;;;;;12.90;4.90;;;;;;;-2.96;100.00;101490.33;219306;1268;141377;-85
2023/02/27 04:12:20;;;;;;;17.20;5.90;;;;;;;-2.86;100.00;101496.02;219289;1269;139040;-84
2023/02/27 04:17:26;;;;;;;15.70;5.40;;;;;;;-2.79;100.00;101503.86;218757;1268;139615;-85
2023/02/27 04:22:42;;;;;;;11.00;5.00;;;;;;;-2.72;100.00;101507.35;219354;1269;104702;-85
2023/02/27 04:28:17;;;;;;;14.50;5.00;;;;;;;-2.62;100.00;101512.61;219105;1268;138931;-84
2023/02/27 04:33:49;;;;;;;14.60;5.90;;;;;;;-2.52;100.00;101516.00;219503;1271;139663;-85
2023/02/27 04:39:27;;;;;;;15.40;5.30;;;;;;;-2.41;100.00;101515.88;218804;1268;139681;-85
2023/02/27 04:44:31;;;;;;;12.60;5.40;;;;;;;-2.31;100.00;101524.41;219262;1268;139262;-83
2023/02/27 04:49:36;;;;;;;14.90;4.60;;;;;;;-2.24;100.00;101523.73;218794;1268;139918;-85
2023/02/27 04:54:46;;;;;;;11.50;5.00;;;;;;;-2.16;100.00;101522.62;219314;1273;139677;-84
2023/02/27 04:59:52;;;;;;;13.00;4.20;;;;;;;-2.09;100.00;101522.74;218824;1270;139116;-84
2023/02/27 05:04:55;;;;;;;;;;;;;;;-2.01;100.00;101525.02;219961;1269;140219;-83
2023/02/27 05:10:01;;;;;;;12.30;3.60;;;;;;;-1.95;100.00;101530.65;219021;1269;125586;-84
2023/02/27 05:15:11;;;;;;;10.00;3.60;;;;;;;-1.89;100.00;101533.07;218896;1269;267109;-84
2023/02/27 05:20:14;;;;;;;10.30;4.40;;;;;;;-1.82;100.00;101531.19;218753;1267;139693;-85
2023/02/27 05:25:27;;;;;;;9.80;4.00;;;;;;;-1.78;100.00;101536.27;219635;1267;139147;-84
2023/02/27 05:30:35;;;;;;;9.60;3.90;;;;;;;-1.72;100.00;101544.37;218837;1268;139405;-87
2023/02/27 05:35:57;;;;;;;11.10;4.30;;;;;;;-1.66;100.00;101543.02;219061;1268;139050;-85
2023/02/27 05:41:09;;;;;;;11.00;3.90;;;;;;;-1.61;100.00;101546.50;218862;1268;139608;-85
2023/02/27 05:46:14;;;;;;;11.20;3.70;;;;;;;-1.56;100.00;101557.60;218923;1271;139753;-86
2023/02/27 05:51:18;;;;;;;11.20;4.30;;;;;;;-1.52;100.00;101560.86;219361;1269;138982;-85
2023/02/27 05:56:22;;;;;;;12.20;4.60;;;;;;;-1.48;100.00;101565.92;218976;1268;140217;-86
2023/02/27 06:01:23;;;;;;;15.00;6.80;;;;;;;-1.46;100.00;101574.94;219502;1268;139754;-85
2023/02/27 06:06:23;;;;;;;11.40;5.40;;;;;;;-1.42;100.00;101582.88;218922;1268;139237;-85
2023/02/27 06:11:24;;;;;;;14.10;5.70;;;;;;;-1.38;100.00;101586.88;219455;1268;139745;-85
2023/02/27 06:16:24;;;;;;;15.90;6.40;;;;;;;-1.34;100.00;101588.77;219330;1268;141358;-87
2023/02/27 06:21:25;;;;;;;15.40;7.00;;;;;;;-1.30;100.00;101591.41;219220;1271;138906;-83
2023/02/27 06:26:25;;;;;;;13.80;6.30;;;;;;;-1.26;100.00;101592.39;218985;1271;140411;-82
2023/02/27 06:31:26;;;;;;;17.80;6.40;;;;;;;-1.21;100.00;101588.70;219371;1271;139596;-82
2023/02/27 06:36:28;;;;;;;13.10;5.90;;;;;;;-1.15;100.00;101591.46;218554;1269;139653;-83
2023/02/27 06:41:29;;;;;;;13.00;5.50;;;;;;;-1.10;100.00;101592.27;219460;1268;139234;-82
2023/02/27 06:46:29;;;;;;;14.20;5.50;;;;;;;-1.04;100.00;101598.95;218788;1271;139089;-81
2023/02/27 06:51:29;;;;;;;13.60;6.00;;;;;;;-0.97;100.00;101601.11;219374;1269;139572;-81
2023/02/27 06:56:30;;;;;;;12.20;5.60;;;;;;;-0.89;100.00;101618.02;219085;1268;139644;-81
2023/02/27 07:01:30;;;;;;;14.60;5.40;;;;;;;-0.81;100.00;101621.95;219245;1269;139330;-82
2023/02/27 07:06:31;;;;;;;12.90;5.10;;;;;;;-0.73;100.00;101627.34;219468;1269;139470;-83
2023/02/27 07:11:31;;;;;;;16.00;5.80;;;;;;;-0.66;100.00;101629.17;219581;1269;139103;-83
2023/02/27 07:16:32;;;;;;;13.30;5.70;;;;;;;-0.57;100.00;101633.91;219007;1268;139115;-82
2023/02/27 07:21:32;;;;;;;13.90;5.70;;;;;;;-0.49;100.00;101642.91;219641;1271;139614;-83
2023/02/27 07:26:33;;;;;;;13.90;5.40;;;;;;;-0.40;100.00;101648.30;219009;1268;139490;-82
2023/02/27 07:31:33;;;;;;;11.40;5.10;;;;;;;-0.29;100.00;101658.05;219417;1269;139095;-82
2023/02/27 07:36:33;;;;;;;13.60;5.60;;;;;;;-0.20;100.00;101661.38;218832;1271;140066;-83
2023/02/27 07:41:34;;;;;;;16.30;5.90;;;;;;;-0.09;100.00;101656.48;219443;1269;139156;-82
2023/02/27 07:46:35;;;;;;;12.70;6.00;;;;;;;0.03;100.00;101660.70;218996;1268;140696;-83
2023/02/27 07:51:35;;;;;;;12.90;5.60;;;;;;;0.15;100.00;101665.30;219277;1271;139323;-83
2023/02/27 07:56:35;;;;;;;14.10;6.00;;;;;;;0.28;100.00;101663.17;218844;1271;139487;-83
2023/02/27 08:01:36;;;;;;;14.50;5.60;;;;;;;0.46;100.00;101666.59;219516;1268;138709;-84
2023/02/27 08:06:36;;;;;;;13.30;5.10;;;;;;;0.63;100.00;101669.36;218833;1268;138754;-85
2023/02/27 08:11:36;;;;;;;13.60;5.30;;;;;;;0.79;100.00;101675.96;219326;1270;138925;-85
2023/02/27 08:16:37;;;;;;;13.70;5.50;;;;;;;0.93;100.00;101677.39;219030;1268;139239;-84
2023/02/27 08:21:37;;;;;;;14.00;5.20;;;;;;;1.10;100.00;101679.95;219432;1268;139365;-85
2023/02/27 08:26:38;;;;;;;13.40;4.90;;;;;;;1.22;100.00;101681.58;219050;1270;139675;-85
2023/02/27 08:31:38;;;;;;;16.70;6.10;;;;;;;1.41;100.00;101680.11;219384;1268;138789;-85
2023/02/27 08:36:39;;;;;;;11.50;4.80;;;;;;;1.56;100.00;101685.71;219117;1268;141387;-86
2023/02/27 08:41:39;;;;;;;13.70;5.10;;;;;;;1.79;100.00;101689.70;219645;1269;138646;-86
2023/02/27 08:46:40;;;;;;;12.40;4.40;;;;;;;1.92;100.00;101696.73;218991;1271;139347;-87
2023/02/27 08:51:40;;;;;;;12.10;4.60;;;;;;;2.05;100.00;101701.17;219884;1269;138805;-86
2023/02/27 08:56:41;;;;;;;14.90;4.10;;;;;;;2.17;100.00;101707.02;219110;1268;138717;-86
2023/02/27 09:01:42;;;;;;;9.20;3.90;;;;;;;2.26;99.88;101716.29;219428;1268;139339;-86
2023/02/27 09:06:42;;;;;;;11.10;3.50;;;;;;;2.37;99.65;101713.44;219045;1271;140005;-88
2023/02/27 09:11:45;;;;;;;11.20;3.80;;;;;;;2.51;99.92;101713.36;219419;1268;138442;-89
2023/02/27 09:16:45;;;;;;;8.40;3.00;;;;;;;2.78;99.45;101720.42;218860;1271;139274;-89
2023/02/27 09:21:46;;;;;;;7.70;2.90;;;;;;;3.00;99.08;101728.53;219289;1271;138718;-90
2023/02/27 09:26:47;;;;;;;9.30;3.60;;;;;;;3.13;98.33;101724.41;218789;1269;139213;-89
2023/02/27 09:31:48;;;;;;;14.20;4.00;;;;;;;3.32;98.54;101728.73;219636;1268;138356;-90
2023/02/27 09:36:48;;;;;;;10.80;4.10;;;;;;;3.58;98.81;101729.68;218389;1271;140124;-90
2023/02/27 09:42:02;;;;;;;12.00;3.70;;;;;;;3.75;97.48;101732.39;219628;1271;138492;-88
2023/02/27 09:47:08;;;;;;;7.70;2.90;;;;;;;3.71;93.48;101738.99;218813;1269;138521;-90
2023/02/27 09:52:12;;;;;;;8.40;2.90;;;;;;;3.60;92.66;101747.45;219742;1271;112112;-91
2023/02/27 09:57:36;;;;;;;10.40;3.20;;;;;;;3.53;92.42;101749.34;219512;1271;138551;-90
2023/02/27 10:02:52;;;;;;;10.40;3.70;;;;;;;3.61;92.58;101745.55;219479;1268;138719;-91
2023/02/27 10:08:05;;;;;;;7.00;2.50;;;;;;;3.93;92.78;101746.65;219233;1271;139392;-91
2023/02/27 10:13:17;;;;;;;6.70;2.80;;;;;;;4.18;93.06;101753.72;219650;1268;138403;-91
2023/02/27 10:18:21;;;;;;;7.00;2.10;;;;;;;4.53;92.78;101755.30;219334;1268;138613;-88
2023/02/27 10:23:35;;;;;;;5.00;1.90;;;;;;;4.69;90.71;101760.64;219470;1268;139130;-88
2023/02/27 10:28:35;;;;;;;5.90;2.30;;;;;;;4.64;88.86;101765.55;218941;1271;138566;-88
2023/02/27 10:33:38;;;;;;;4.80;1.70;;;;;;;4.73;89.34;101768.08;220486;1270;138877;-89
2023/02/27 10:38:45;;;;;;;5.60;1.80;;;;;;;4.92;89.06;101769.34;218953;1269;139417;-90
2023/02/27 10:43:45;;;;;;;3.60;1.40;;;;;;;4.99;87.72;101765.91;219444;1269;138931;-88
2023/02/27 10:48:46;;;;;;;5.70;1.50;;;;;;;4.98;87.84;101766.38;219100;1271;139478;-89
2023/02/27 10:53:47;;;;;;;3.70;1.40;;;;;;;5.09;87.27;101764.70;219708;1271;138422;-88
2023/02/27 10:59:02;;;;;;;4.70;1.30;;;;;;;5.16;86.44;101764.16;219207;1271;138375;-87
2023/02/27 11:04:02;;;;;;;4.60;1.60;;;;;;;5.30;84.64;101766.23;219764;1269;107858;-88
2023/02/27 11:09:18;;;;;;;6.60;2.00;;;;;;;5.23;82.31;101766.08;218996;1269;138752;-87
2023/02/27 11:14:18;;;;;;;5.30;1.40;;;;;;;5.10;81.25;101758.94;219662;1270;139524;-90
2023/02/27 11:19:38;;;;;;;2.40;0.80;;;;;;;5.15;80.81;101761.78;219272;1269;139131;-88
2023/02/27 11:24:39;;;;;;;3.00;0.70;;;;;;;5.06;76.10;101757.52;219621;1271;139368;-87
2023/02/27 11:29:54;;;;;;;2.00;0.80;;;;;;;4.90;76.90;101757.77;219433;1271;138911;-88
2023/02/27 11:34:55;;;;;;;2.30;0.80;;;;;;;4.91;77.84;101760.30;219964;1268;111883;-89
2023/02/27 11:40:09;;;;;;;4.90;2.10;;;;;;;4.96;77.53;101763.14;219188;1271;138590;-86
2023/02/27 11:45:31;;;;;;;5.20;1.60;;;;;;;4.70;76.58;101758.27;219626;1271;138233;-87
2023/02/27 11:50:51;;;;;;;5.40;1.60;;;;;;;4.62;77.65;101753.54;218620;1271;139566;-90
2023/02/27 11:55:55;;;;;;;6.60;1.60;;;;;;;4.50;77.14;101753.37;219390;1271;138306;-89
2023/02/27 12:01:08;;;;;;;3.30;1.00;;;;;;;4.46;77.81;101762.17;219207;1269;138695;-89
2023/02/27 12:06:22;;;;;;;5.80;2.00;;;;;;;4.50;76.43;101753.31;218816;1271;138484;-89
2023/02/27 12:11:36;;;;;;;2.50;0.90;;;;;;;4.59;77.04;101750.06;219412;1269;139426;-89
2023/02/27 12:16:42;;;;;;;4.40;1.30;;;;;;;4.57;75.19;101751.63;218904;1269;138823;-87
2023/02/27 12:21:48;;;;;;;4.80;1.20;;;;;;;4.43;74.50;101749.18;219767;1271;138182;-88
2023/02/27 12:26:59;;;;;;;4.40;1.70;;;;;;;4.44;75.44;101745.86;218789;1271;141538;-88
2023/02/27 12:32:22;;;;;;;6.40;1.90;;;;;;;4.48;74.78;101747.39;219121;1271;151748;-88
2023/02/27 12:37:26;;;;;;;4.80;1.80;;;;;;;4.45;73.22;101744.80;218891;1268;139120;-88
2023/02/27 12:42:46;;;;;;;4.40;1.10;;;;;;;4.45;75.09;101747.48;219692;1269;138462;-89
2023/02/27 12:47:54;;;;;;;4.40;1.30;;;;;;;4.52;73.63;101757.73;219189;1268;139474;-88
2023/02/27 12:53:12;;;;;;;5.50;2.00;;;;;;;4.49;74.48;101758.63;219849;1271;97976;-88
2023/02/27 12:58:23;;;;;;;9.10;2.30;;;;;;;4.40;74.13;101765.92;218962;1271;138400;-88
2023/02/27 13:03:47;;;;;;;6.60;2.00;;;;;;;4.39;75.86;101762.68;219401;1269;138341;-89
2023/02/27 13:09:07;;;;;;;5.30;1.70;;;;;;;4.41;74.34;101771.88;219099;1268;138273;-89
2023/02/27 13:14:26;;;;;;;4.50;1.40;;;;;;;4.34;74.49;101768.23;220141;1271;138614;-88
2023/02/27 13:19:38;;;;;;;4.70;1.50;;;;;;;4.36;73.02;101768.32;218753;1271;138715;-90
2023/02/27 13:24:48;;;;;;;5.40;1.70;;;;;;;4.19;72.02;101766.73;219442;1269;138811;-88
2023/02/27 13:30:20;;;;;;;4.60;1.70;;;;;;;4.14;72.98;101767.71;219191;1271;138685;-90
2023/02/27 13:35:58;;;;;;;5.00;1.50;;;;;;;4.15;72.82;101765.40;219489;1269;138879;-89
2023/02/27 13:41:26;;;;;;;10.50;5.00;;;;;;;4.08;70.75;101769.02;219482;1268;138730;-90
2023/02/27 13:46:33;;;;;;;4.00;1.60;;;;;;;4.05;70.76;101770.94;219037;1271;139204;-88
2023/02/27 13:51:33;;;;;;;;;;;;;;;3.99;70.76;101775.99;219554;1269;138346;-89
2023/02/27 13:56:34;;;;;;;5.00;1.70;;;;;;;3.99;70.84;101775.94;219380;1271;124814;-91
2023/02/27 14:01:36;;;;;;;5.50;1.80;;;;;;;4.05;72.67;101777.09;220241;1269;138608;-91
2023/02/27 14:06:46;;;;;;;3.80;1.90;;;;;;;4.15;73.13;101773.67;220034;1269;139642;-89
2023/02/27 14:11:58;;;;;;;4.90;1.80;;;;;;;4.15;72.15;101773.52;219363;1271;138336;-88
2023/02/27 14:17:00;;;;;;;11.70;6.70;;;;;;;4.06;71.56;101780.02;219426;1268;139649;-89
2023/02/27 14:22:10;;;;;;;8.20;2.40;;;;;;;4.05;72.59;101782.70;220185;1271;138941;-88
2023/02/27 14:27:22;;;;;;;50.30;30.30;;;;;;;4.05;71.82;101784.05;219553;1269;138691;-90
2023/02/27 14:32:28;;;;;;;53.30;26.90;;;;;;;4.04;71.07;101790.29;219603;1269;139204;-90
2023/02/27 14:37:29;;;;;;;32.80;8.30;;;;;;;4.02;70.28;101795.39;219316;1272;139481;-90
2023/02/27 14:42:35;;;;;;;61.20;27.50;;;;;;;3.95;68.91;101793.13;219785;1269;139199;-90
2023/02/27 14:47:38;;;;;;;41.00;18.30;;;;;;;3.93;68.92;101796.38;218975;1271;139256;-90
2023/02/27 14:52:42;;;;;;;25.60;7.60;;;;;;;3.90;68.77;101798.55;219728;1271;98014;-90
2023/02/27 14:58:16;;;;;;;17.30;7.80;;;;;;;3.89;68.53;101804.46;219467;1271;138801;-90
2023/02/27 15:03:40;;;;;;;32.40;10.90;;;;;;;3.84;69.52;101806.93;219305;1271;138397;-90
2023/02/27 15:08:44;;;;;;;36.10;14.20;;;;;;;3.86;69.99;101806.30;218828;1271;141871;-90
2023/02/27 15:13:46;;;;;;;10.90;3.60;;;;;;;3.85;70.06;101815.25;219476;1271;138779;-89
2023/02/27 15:18:49;;;;;;;9.60;2.90;;;;;;;3.85;70.81;101821.13;219042;1269;138909;-89
2023/02/27 15:24:23;;;;;;;13.60;3.60;;;;;;;3.83;70.84;101825.15;219661;1269;138492;-90
2023/02/27 15:29:33;;;;;;;13.10;3.90;;;;;;;3.71;69.78;101829.00;218941;1271;138626;-88
2023/02/27 15:34:34;;;;;;;8.40;3.10;;;;;;;3.56;70.98;101834.41;219925;1271;99124;-89
2023/02/27 15:39:35;;;;;;;8.00;2.70;;;;;;;3.57;72.47;101833.65;219091;1271;140248;-89
2023/02/27 15:44:45;;;;;;;8.70;3.20;;;;;;;3.57;73.06;101842.02;220004;1269;138670;-90
2023/02/27 15:49:47;;;;;;;7.80;2.60;;;;;;;3.54;73.24;101847.41;220057;1271;138360;-90
2023/02/27 15:55:00;;;;;;;8.60;2.70;;;;;;;3.50;73.95;101855.05;219269;1271;138355;-90
2023/02/27 16:00:04;;;;;;;11.70;3.80;;;;;;;3.48;74.52;101858.55;218644;1271;138411;-90
2023/02/27 16:05:04;;;;;;;41.90;12.50;;;;;;;3.41;74.26;101865.36;219658;1269;97923;-90
2023/02/27 16:10:15;;;;;;;169.60;59.30;;;;;;;3.29;74.49;101864.10;218854;1271;138881;-90
2023/02/27 16:15:16;;;;;;;125.60;50.20;;;;;;;3.21;74.57;101868.95;219365;1271;138682;-90
2023/02/27 16:20:28;;;;;;;285.10;91.50;;;;;;;3.13;74.82;101875.86;218690;1270;138966;-91
2023/02/27 16:25:28;;;;;;;158.40;48.30;;;;;;;3.09;75.64;101877.72;219054;1271;139204;-91
2023/02/27 16:30:29;;;;;;;102.10;31.20;;;;;;;3.04;76.05;101887.58;218775;1272;139414;-90
2023/02/27 16:35:30;;;;;;;36.80;11.20;;;;;;;2.99;76.18;101891.00;219317;1271;139999;-92
2023/02/27 16:40:30;;;;;;;13.30;5.30;;;;;;;2.94;76.76;101895.42;220324;1269;138775;-94
2023/02/27 16:45:31;;;;;;;26.40;10.20;;;;;;;2.89;76.95;101896.20;220235;1269;137988;-94
2023/02/27 16:50:41;;;;;;;30.60;11.10;;;;;;;2.83;76.76;101901.39;218987;1271;138800;-92
2023/02/27 16:55:42;;;;;;;28.10;13.00;;;;;;;2.73;76.17;101903.66;219596;1269;139269;-93
2023/02/27 17:00:43;;;;;;;165.60;54.70;;;;;;;2.63;76.46;101911.77;218900;1271;138817;-92
2023/02/27 17:05:43;;;;;;;150.30;53.90;;;;;;;2.56;76.83;101919.45;219482;1272;139472;-93
2023/02/27 17:10:44;;;;;;;63.40;25.10;;;;;;;2.46;77.03;101926.78;219497;1271;139014;-93
2023/02/27 17:15:44;;;;;;;40.00;16.00;;;;;;;2.38;77.01;101932.02;219890;1271;250138;-91
2023/02/27 17:20:45;;;;;;;32.10;15.50;;;;;;;2.27;77.51;101939.79;219508;1271;138756;-92
2023/02/27 17:25:45;;;;;;;23.40;10.50;;;;;;;2.18;77.72;101940.39;221783;1271;137774;-91
2023/02/27 17:30:47;;;;;;;18.60;9.20;;;;;;;2.09;78.24;101948.90;219558;1266;139216;-92
2023/02/27 17:35:48;;;;;;;19.00;8.50;;;;;;;1.99;79.10;101943.01;221970;1269;138596;-92
2023/02/27 17:40:49;;;;;;;18.30;8.70;;;;;;;1.91;78.98;101946.80;220479;1266;138676;-93
2023/02/27 17:45:49;;;;;;;17.90;7.50;;;;;;;1.77;79.56;101949.69;221630;1266;138765;-94
2023/02/27 17:50:50;;;;;;;21.90;10.70;;;;;;;1.61;79.98;101954.06;220867;1270;138590;-94
2023/02/27 17:55:51;;;;;;;28.20;13.20;;;;;;;1.47;80.25;101958.48;220619;1270;138689;-94
2023/02/27 18:00:51;;;;;;;48.00;22.00;;;;;;;1.31;80.73;101960.20;220445;1270;139214;-93
2023/02/27 18:05:52;;;;;;;48.90;21.20;;;;;;;1.17;80.80;101961.52;220327;1270;139017;-93
2023/02/27 18:10:53;;;;;;;50.40;23.70;;;;;;;1.02;81.30;101964.61;219826;1269;138410;-94
2023/02/27 18:15:55;;;;;;;56.00;24.80;;;;;;;0.90;81.86;101967.30;219864;1270;139142;-91
2023/02/27 18:21:09;;;;;;;80.30;32.90;;;;;;;0.78;81.91;101967.44;220670;1265;138575;-94
2023/02/27 18:26:24;;;;;;;135.50;53.10;;;;;;;0.65;82.54;101968.71;221549;1267;138977;-92
2023/02/27 18:31:33;;;;;;;165.00;56.50;;;;;;;0.61;83.08;101969.04;220339;1267;138942;-94
2023/02/27 18:36:34;;;;;;;123.50;46.00;;;;;;;0.58;83.65;101972.90;219495;1272;139346;-94
2023/02/27 18:41:35;;;;;;;98.40;37.90;;;;;;;0.45;83.66;101973.55;220040;1267;140056;-94
2023/02/27 18:46:37;;;;;;;80.50;33.20;;;;;;;0.38;84.72;101979.02;219698;1267;139231;-94
2023/02/27 18:51:38;;;;;;;76.50;30.80;;;;;;;0.35;84.95;101978.17;220690;1267;138766;-96
2023/02/27 18:56:39;;;;;;;95.20;38.60;;;;;;;0.30;85.36;101981.20;219940;1269;138985;-94
2023/02/27 19:01:40;;;;;;;54.30;23.20;;;;;;;0.25;85.50;101977.59;220385;1267;139203;-94
2023/02/27 19:06:41;;;;;;;50.80;24.60;;;;;;;0.26;86.18;101978.61;221667;1265;138357;-92
2023/02/27 19:11:46;;;;;;;42.90;21.00;;;;;;;0.27;86.58;101977.25;220857;1267;139290;-92
2023/02/27 19:16:49;;;;;;;44.80;21.00;;;;;;;0.20;86.06;101983.91;221588;1266;137709;-93
2023/02/27 19:21:50;;;;;;;39.80;20.00;;;;;;;0.16;86.32;101984.45;220251;1270;138468;-93
2023/02/27 19:26:50;;;;;;;40.00;20.90;;;;;;;0.12;86.16;101988.73;219609;1267;138687;-92
2023/02/27 19:31:51;;;;;;;41.30;21.00;;;;;;;0.07;86.57;101987.33;220083;1270;139222;-92
2023/02/27 19:36:51;;;;;;;28.30;14.20;;;;;;;0.01;86.26;101988.40;219451;1267;138947;-92
2023/02/27 19:41:52;;;;;;;23.50;11.00;;;;;;;-0.03;86.70;101988.34;220129;1269;138814;-93
2023/02/27 19:46:52;;;;;;;24.60;11.90;;;;;;;-0.07;86.45;101988.34;219748;1269;139270;-92
2023/02/27 19:51:53;;;;;;;44.90;13.80;;;;;;;-0.10;87.21;101995.63;220228;1267;139413;-93
2023/02/27 19:56:54;;;;;;;33.20;13.60;;;;;;;-0.13;87.40;101997.25;219954;1269;139526;-92
2023/02/27 20:01:54;;;;;;;40.30;20.90;;;;;;;-0.16;87.15;101999.41;220111;1270;139540;-91
2023/02/27 20:06:55;;;;;;;41.20;17.40;;;;;;;-0.17;87.77;102000.60;220662;1266;139013;-92
2023/02/27 20:11:57;;;;;;;37.60;17.10;;;;;;;-0.17;87.68;101997.56;219807;1269;138958;-90
2023/02/27 20:16:58;;;;;;;40.10;16.60;;;;;;;-0.16;87.73;102004.12;219344;1267;139280;-91
2023/02/27 20:21:58;;;;;;;32.60;14.30;;;;;;;-0.15;88.41;101996.48;219850;1266;138988;-91
2023/02/27 20:26:59;;;;;;;24.40;13.10;;;;;;;-0.15;88.06;102002.55;219375;1267;139328;-92
2023/02/27 20:32:00;;;;;;;26.90;11.20;;;;;;;-0.16;88.27;102003.91;220316;1269;139028;-92
2023/02/27 20:37:01;;;;;;;20.10;10.10;;;;;;;-0.17;87.98;102004.48;219616;1265;139307;-92
2023/02/27 20:42:03;;;;;;;23.50;10.80;;;;;;;-0.17;88.38;102014.89;220140;1269;139084;-93
2023/02/27 20:47:03;;;;;;;34.30;16.50;;;;;;;-0.17;88.55;102020.08;220804;1267;138581;-93
2023/02/27 20:52:04;;;;;;;41.10;18.70;;;;;;;-0.17;88.39;102017.05;220854;1268;139673;-92
2023/02/27 20:57:04;;;;;;;42.10;19.40;;;;;;;-0.16;88.41;102023.71;220309;1266;139074;-93
2023/02/27 21:02:07;;;;;;;35.50;16.40;;;;;;;-0.15;88.69;102027.71;220776;1269;140126;-94
2023/02/27 21:07:17;;;;;;;34.80;16.40;;;;;;;-0.13;88.29;102030.33;219546;1266;139582;-93
2023/02/27 21:12:17;;;;;;;38.30;15.40;;;;;;;-0.12;88.17;102034.17;220452;1267;139169;-92
2023/02/27 21:17:18;;;;;;;27.40;13.00;;;;;;;-0.13;88.10;102037.47;219751;1269;139667;-92
2023/02/27 21:22:18;;;;;;;22.40;9.20;;;;;;;-0.17;88.07;102032.15;220132;1267;98042;-91
2023/02/27 21:27:20;;;;;;;19.10;9.10;;;;;;;-0.26;88.37;102035.59;219517;1266;138651;-92
2023/02/27 21:32:20;;;;;;;22.20;9.00;;;;;;;-0.37;88.54;102037.23;219703;1266;138826;-88
2023/02/27 21:37:21;;;;;;;26.10;10.70;;;;;;;-0.47;88.56;102038.75;218949;1270;139634;-89
2023/02/27 21:42:22;;;;;;;44.30;15.00;;;;;;;-0.58;88.70;102044.02;219535;1268;139026;-89
2023/02/27 21:47:22;;;;;;;59.00;18.20;;;;;;;-0.68;89.03;102050.14;219259;1265;139439;-90
2023/02/27 21:52:23;;;;;;;111.30;30.90;;;;;;;-0.78;89.11;102054.20;220753;1266;103720;-89
2023/02/27 21:57:23;;;;;;;127.20;37.00;;;;;;;-0.84;89.26;102063.78;219050;1265;139637;-89
2023/02/27 22:02:24;;;;;;;80.90;27.90;;;;;;;-0.93;89.34;102063.14;219606;1266;140096;-88
2023/02/27 22:07:24;;;;;;;64.40;21.00;;;;;;;-1.06;89.64;102064.30;219087;1266;139527;-90
2023/02/27 22:12:25;;;;;;;59.40;21.40;;;;;;;-1.17;89.87;102063.85;219585;1267;139105;-90
2023/02/27 22:17:26;;;;;;;43.90;18.30;;;;;;;-1.25;90.42;102061.52;219346;1266;139782;-91
2023/02/27 22:22:26;;;;;;;288.10;78.20;;;;;;;-1.31;91.06;102060.45;220101;1270;98005;-91
2023/02/27 22:27:27;;;;;;;147.50;47.10;;;;;;;-1.39;91.34;102059.95;219572;1265;139847;-91
2023/02/27 22:32:27;;;;;;;61.80;24.80;;;;;;;-1.47;91.26;102065.84;221526;1268;139670;-92
2023/02/27 22:37:28;;;;;;;79.40;25.60;;;;;;;-1.55;91.58;102066.88;219274;1268;139124;-90
2023/02/27 22:42:29;;;;;;;62.20;22.40;;;;;;;-1.61;92.11;102066.42;221456;1265;139463;-90
2023/02/27 22:47:29;;;;;;;68.40;24.70;;;;;;;-1.66;92.21;102070.79;219180;1266;139517;-89
2023/02/27 22:52:30;;;;;;;61.30;24.00;;;;;;;-1.71;92.10;102072.04;219787;1266;99009;-89
2023/02/27 22:57:30;;;;;;;59.30;21.50;;;;;;;-1.77;92.19;102076.73;219039;1269;139170;-88
2023/02/27 23:02:32;;;;;;;46.20;17.30;;;;;;;-1.82;92.50;102071.61;219590;1265;139369;-87
2023/02/27 23:07:33;;;;;;;46.50;15.60;;;;;;;-1.86;92.54;102071.79;219062;1269;139105;-88